Time;durP1;ratioP1;P1;durP2;ratioP2;P2;SDS_P1;SDS_P2;PMS_P1;PMS_P2;Temp;Humidity;BMP_temperature;BMP_pressure;BME280_temperature;BME280_humidity;BME280_pressure;Samples;Min_cycle;Max_cycle;Signal;HPM_P1;HPM_P2
2022/12/09 00:01:09;;;;;;;39.53;22.30;;;3.10;69.00;;;;;;4948541;28;114693;-79
2022/12/09 00:03:37;;;;;;;38.58;22.95;;;3.20;68.90;;;;;;4965783;28;114760;-80
2022/12/09 00:06:13;;;;;;;37.65;21.90;;;3.20;68.90;;;;;;4966629;28;114507;-81
2022/12/09 00:08:40;;;;;;;40.75;23.23;;;3.20;68.80;;;;;;4959407;28;115048;-80
2022/12/09 00:11:08;;;;;;;43.65;22.98;;;3.30;68.70;;;;;;4965465;28;114944;-80
2022/12/09 00:13:35;;;;;;;36.70;21.60;;;3.30;68.70;;;;;;4936579;28;114492;-80
2022/12/09 00:16:10;;;;;;;35.42;19.80;;;3.30;68.70;;;;;;4968841;28;114439;-81
2022/12/09 00:18:38;;;;;;;36.40;20.17;;;3.40;68.70;;;;;;4951830;28;121258;-79
2022/12/09 00:21:27;;;;;;;36.92;19.85;;;3.40;68.60;;;;;;4970759;28;114653;-79
2022/12/09 00:23:56;;;;;;;38.45;21.40;;;3.40;68.60;;;;;;4967594;28;114518;-80
2022/12/09 00:26:24;;;;;;;38.67;22.88;;;3.40;68.60;;;;;;4968416;28;114845;-79
2022/12/09 00:28:51;;;;;;;43.90;22.60;;;3.40;68.60;;;;;;4969005;28;115146;-80
2022/12/09 00:31:23;;;;;;;42.58;24.45;;;3.40;68.60;;;;;;4969144;28;115065;-79
2022/12/09 00:33:51;;;;;;;44.58;25.60;;;3.40;68.70;;;;;;4971144;28;114628;-80
2022/12/09 00:36:20;;;;;;;42.88;25.63;;;3.40;68.70;;;;;;4969874;28;114688;-80
2022/12/09 00:38:48;;;;;;;44.78;25.92;;;3.50;68.60;;;;;;4967560;28;115163;-79
2022/12/09 00:41:16;;;;;;;44.95;25.27;;;3.40;68.70;;;;;;4986348;28;114693;-79
2022/12/09 00:43:45;;;;;;;44.97;24.33;;;3.40;68.70;;;;;;4985420;28;114405;-79
2022/12/09 00:46:13;;;;;;;43.55;25.17;;;3.40;68.80;;;;;;4968907;28;118489;-79
2022/12/09 00:48:40;;;;;;;41.75;24.42;;;3.40;68.80;;;;;;4968258;28;115047;-80
2022/12/09 00:51:11;;;;;;;42.90;25.90;;;3.30;68.80;;;;;;4983963;28;115502;-80
2022/12/09 00:53:39;;;;;;;44.92;25.30;;;3.30;68.90;;;;;;4957546;28;116656;-80
2022/12/09 00:56:06;;;;;;;45.08;25.63;;;3.30;68.90;;;;;;4936072;28;114476;-80
2022/12/09 00:58:33;;;;;;;42.25;24.05;;;3.30;69.00;;;;;;4968364;28;115128;-80
2022/12/09 01:01:00;;;;;;;42.00;24.17;;;3.30;69.00;;;;;;4967090;28;114639;-80
2022/12/09 01:03:27;;;;;;;45.63;25.88;;;3.30;69.00;;;;;;4978167;28;116445;-80
2022/12/09 01:05:56;;;;;;;37.63;23.58;;;3.30;69.00;;;;;;4970152;28;114336;-80
2022/12/09 01:08:23;;;;;;;40.08;23.70;;;3.20;69.10;;;;;;4967526;28;115313;-80
2022/12/09 01:10:51;;;;;;;39.35;24.13;;;3.20;69.20;;;;;;4967284;28;115095;-80
2022/12/09 01:13:18;;;;;;;37.80;22.58;;;3.20;69.20;;;;;;4967805;28;114539;-80
2022/12/09 01:15:46;;;;;;;40.10;22.85;;;3.20;69.20;;;;;;4971998;28;114363;-80
2022/12/09 01:18:16;;;;;;;38.00;23.00;;;3.20;69.20;;;;;;4967033;28;116451;-79
2022/12/09 01:20:43;;;;;;;40.63;22.00;;;3.10;69.40;;;;;;4934989;28;114930;-79
2022/12/09 01:23:10;;;;;;;42.60;22.27;;;3.10;69.40;;;;;;4961750;28;114268;-80
2022/12/09 01:25:38;;;;;;;38.35;22.58;;;3.10;69.50;;;;;;4965975;28;114356;-79
2022/12/09 01:28:05;;;;;;;34.40;20.98;;;3.10;69.60;;;;;;4979059;28;115949;-79
2022/12/09 01:30:32;;;;;;;31.73;18.00;;;3.10;69.60;;;;;;4967889;28;114629;-79
2022/12/09 01:32:59;;;;;;;39.60;21.88;;;3.10;69.70;;;;;;4969648;28;115216;-79
2022/12/09 01:35:27;;;;;;;38.85;21.27;;;3.10;69.70;;;;;;4969627;28;115769;-79
2022/12/09 01:37:55;;;;;;;35.78;20.60;;;3.10;69.70;;;;;;4967885;28;115511;-79
2022/12/09 01:40:22;;;;;;;33.20;19.33;;;3.10;69.80;;;;;;4982247;28;114680;-80
2022/12/09 01:42:50;;;;;;;37.95;21.13;;;3.10;69.90;;;;;;4968944;28;114395;-80
2022/12/09 01:45:19;;;;;;;36.25;20.40;;;3.00;69.90;;;;;;4953416;28;114462;-80
2022/12/09 01:48:10;;;;;;;33.90;20.02;;;3.00;69.90;;;;;;4965677;28;118012;-80
2022/12/09 01:51:22;;;;;;;33.33;19.15;;;3.00;70.00;;;;;;4951377;28;114711;-80
2022/12/09 01:53:49;;;;;;;34.35;19.63;;;3.00;70.10;;;;;;4953068;28;114591;-80
2022/12/09 01:56:32;;;;;;;36.05;20.63;;;2.90;70.10;;;;;;4936057;28;114876;-81
2022/12/09 01:59:05;;;;;;;36.05;20.38;;;2.90;70.30;;;;;;4935262;28;115153;-80
2022/12/09 02:01:33;;;;;;;35.92;20.30;;;2.90;70.30;;;;;;4934009;28;116477;-81
2022/12/09 02:04:00;;;;;;;37.38;22.02;;;2.90;70.30;;;;;;4950812;28;114723;-80
2022/12/09 02:06:28;;;;;;;38.00;21.90;;;2.90;70.40;;;;;;4952427;28;114576;-80
2022/12/09 02:08:56;;;;;;;39.28;20.88;;;2.90;70.40;;;;;;4966036;28;115024;-80
2022/12/09 02:11:59;;;;;;;39.95;21.52;;;2.90;70.50;;;;;;4947585;28;116214;-80
2022/12/09 02:14:47;;;;;;;40.75;21.58;;;2.90;70.50;;;;;;4951735;28;114444;-80
2022/12/09 02:17:44;;;;;;;34.70;19.52;;;2.90;70.60;;;;;;4966273;28;114456;-81
2022/12/09 02:20:43;;;;;;;33.33;18.95;;;2.90;70.60;;;;;;4951519;28;115240;-81
2022/12/09 02:23:27;;;;;;;34.70;20.65;;;2.90;70.70;;;;;;4950386;28;115101;-80
2022/12/09 02:26:23;;;;;;;40.38;22.52;;;2.90;70.70;;;;;;4932010;28;114460;-81
2022/12/09 02:29:12;;;;;;;37.20;20.83;;;2.90;70.70;;;;;;4966541;28;115969;-80
2022/12/09 02:32:15;;;;;;;35.92;19.73;;;2.90;70.70;;;;;;4948955;28;115704;-80
2022/12/09 02:35:19;;;;;;;32.97;19.80;;;3.00;70.70;;;;;;4950252;28;114782;-81
2022/12/09 02:37:57;;;;;;;35.28;20.40;;;2.90;70.80;;;;;;4950164;28;114543;-80
2022/12/09 02:40:34;;;;;;;37.40;20.00;;;2.90;70.90;;;;;;4950831;28;114235;-81
2022/12/09 02:43:02;;;;;;;35.60;18.65;;;2.90;70.80;;;;;;4949671;28;115846;-81
2022/12/09 02:45:30;;;;;;;35.05;19.50;;;2.90;70.80;;;;;;4932983;28;115746;-80
2022/12/09 02:48:00;;;;;;;34.38;18.75;;;2.90;70.90;;;;;;4950260;28;114747;-80
2022/12/09 02:50:31;;;;;;;33.53;20.23;;;2.90;70.90;;;;;;4966028;28;114430;-80
2022/12/09 02:53:00;;;;;;;34.63;19.48;;;3.00;71.00;;;;;;4931085;28;115333;-80
2022/12/09 02:55:29;;;;;;;36.92;20.92;;;3.00;70.90;;;;;;4933414;28;114708;-80
2022/12/09 02:57:59;;;;;;;34.78;19.48;;;3.00;70.90;;;;;;4935221;28;114835;-79
2022/12/09 03:00:28;;;;;;;37.60;20.60;;;2.90;71.00;;;;;;4952091;28;114641;-79
2022/12/09 03:02:59;;;;;;;37.15;19.70;;;2.90;70.90;;;;;;4966802;28;115565;-79
2022/12/09 03:05:38;;;;;;;35.13;19.42;;;3.00;70.90;;;;;;4965274;28;114604;-80
2022/12/09 03:08:24;;;;;;;34.80;19.63;;;3.00;71.00;;;;;;4951499;28;114363;-79
2022/12/09 03:11:09;;;;;;;36.72;20.75;;;2.90;71.00;;;;;;4972196;28;114735;-80
2022/12/09 03:13:51;;;;;;;37.15;20.20;;;2.90;71.10;;;;;;4935393;28;115366;-79
2022/12/09 03:16:24;;;;;;;35.33;19.00;;;2.90;71.10;;;;;;4967828;28;114748;-79
2022/12/09 03:19:01;;;;;;;35.10;20.52;;;2.90;71.20;;;;;;4967992;28;114286;-79
2022/12/09 03:21:31;;;;;;;34.83;19.67;;;2.90;71.10;;;;;;4934506;28;114600;-79
2022/12/09 03:23:58;;;;;;;32.35;18.92;;;2.90;71.20;;;;;;4932317;28;115924;-79
2022/12/09 03:26:28;;;;;;;36.85;20.35;;;2.90;71.20;;;;;;4949340;28;114916;-79
2022/12/09 03:28:56;;;;;;;37.63;19.90;;;2.90;71.20;;;;;;4950601;28;114592;-79
2022/12/09 03:31:24;;;;;;;31.35;18.20;;;2.90;71.20;;;;;;4967090;28;114665;-80
2022/12/09 03:33:52;;;;;;;35.50;19.15;;;2.90;71.30;;;;;;4965714;28;115159;-80
2022/12/09 03:36:20;;;;;;;35.22;19.58;;;2.90;71.30;;;;;;4949138;28;114812;-79
2022/12/09 03:38:48;;;;;;;32.70;18.65;;;2.90;71.30;;;;;;4951302;28;116180;-79
2022/12/09 03:41:31;;;;;;;32.65;18.95;;;2.90;71.40;;;;;;4966381;28;115234;-79
2022/12/09 03:44:36;;;;;;;37.25;19.65;;;2.90;71.40;;;;;;4933386;28;115601;-80
2022/12/09 03:47:04;;;;;;;38.05;20.75;;;2.90;71.30;;;;;;4961211;28;115919;-79
2022/12/09 03:49:32;;;;;;;42.60;21.17;;;2.80;71.40;;;;;;4953728;28;116179;-80
2022/12/09 03:52:07;;;;;;;35.80;19.80;;;2.80;71.50;;;;;;4950672;28;114481;-80
2022/12/09 03:54:44;;;;;;;37.45;19.90;;;2.90;71.60;;;;;;4935709;28;115226;-80
2022/12/09 03:57:15;;;;;;;34.97;19.85;;;2.90;71.60;;;;;;4968441;28;115172;-79
2022/12/09 03:59:53;;;;;;;36.30;19.85;;;2.90;71.60;;;;;;4973730;28;115963;-79
2022/12/09 04:02:21;;;;;;;33.00;18.88;;;3.00;71.60;;;;;;4956808;28;116345;-80
2022/12/09 04:04:48;;;;;;;34.75;19.48;;;2.90;71.40;;;;;;4933682;28;115107;-80
2022/12/09 04:07:16;;;;;;;36.20;21.75;;;2.90;71.50;;;;;;4968875;28;114581;-80
2022/12/09 04:09:44;;;;;;;35.88;21.08;;;3.00;71.60;;;;;;4968914;28;114646;-80
2022/12/09 04:12:11;;;;;;;36.20;19.80;;;3.00;71.60;;;;;;4949736;28;114767;-80
2022/12/09 04:14:39;;;;;;;33.35;19.38;;;3.00;71.70;;;;;;4969085;28;115539;-80
2022/12/09 04:17:06;;;;;;;38.17;19.98;;;3.00;71.60;;;;;;4969866;28;114596;-81
2022/12/09 04:19:34;;;;;;;35.90;20.63;;;3.10;71.50;;;;;;4985160;28;114324;-80
2022/12/09 04:22:02;;;;;;;37.67;21.48;;;3.00;71.40;;;;;;4970379;28;114410;-81
2022/12/09 04:24:29;;;;;;;36.85;19.35;;;2.80;71.30;;;;;;4966445;28;115529;-80
2022/12/09 04:26:57;;;;;;;38.63;21.08;;;2.70;71.70;;;;;;4968613;28;114679;-80
2022/12/09 04:29:27;;;;;;;35.28;20.35;;;2.60;72.10;;;;;;4969558;28;114340;-80
2022/12/09 04:31:56;;;;;;;35.28;19.85;;;2.70;72.20;;;;;;4969766;28;114368;-80
2022/12/09 04:34:24;;;;;;;35.80;19.58;;;2.70;72.20;;;;;;4967722;28;115116;-81
2022/12/09 04:36:51;;;;;;;36.58;20.17;;;2.70;72.20;;;;;;4968168;28;114763;-81
2022/12/09 04:39:18;;;;;;;39.45;20.60;;;2.80;72.10;;;;;;4951319;28;114587;-80
2022/12/09 04:41:46;;;;;;;36.53;20.20;;;2.90;72.10;;;;;;4952002;28;116266;-79
2022/12/09 04:44:13;;;;;;;34.50;19.73;;;2.90;72.00;;;;;;4968132;28;115077;-79
2022/12/09 04:46:40;;;;;;;36.10;19.50;;;2.90;72.00;;;;;;4950357;28;118925;-78
2022/12/09 04:49:08;;;;;;;36.38;20.63;;;3.00;71.90;;;;;;4968535;28;114810;-78
2022/12/09 04:51:35;;;;;;;42.35;22.25;;;3.00;71.80;;;;;;4969488;28;114782;-78
2022/12/09 04:54:12;;;;;;;35.08;19.63;;;3.00;71.80;;;;;;4975786;28;115099;-79
2022/12/09 04:56:40;;;;;;;37.95;20.55;;;3.00;71.80;;;;;;4954440;28;115831;-79
2022/12/09 04:59:07;;;;;;;34.97;18.40;;;3.00;71.70;;;;;;4954635;28;114546;-79
2022/12/09 05:01:35;;;;;;;39.15;21.70;;;2.90;71.60;;;;;;4969287;28;114368;-79
2022/12/09 05:04:03;;;;;;;35.00;18.67;;;2.90;71.60;;;;;;4950870;28;116431;-79
2022/12/09 05:06:30;;;;;;;40.50;21.45;;;2.70;71.70;;;;;;4966555;28;115218;-79
2022/12/09 05:08:59;;;;;;;40.08;21.13;;;2.70;72.10;;;;;;4969627;28;114438;-78
2022/12/09 05:11:27;;;;;;;37.72;20.58;;;2.70;72.30;;;;;;4952006;28;114688;-78
2022/12/09 05:13:55;;;;;;;37.97;21.33;;;2.70;72.20;;;;;;4968175;28;115351;-79
2022/12/09 05:16:22;;;;;;;37.83;20.13;;;2.80;72.10;;;;;;4968923;28;114653;-79
2022/12/09 05:18:50;;;;;;;36.00;20.42;;;2.80;72.00;;;;;;4968960;28;114367;-79
2022/12/09 05:21:18;;;;;;;38.20;21.08;;;2.80;72.00;;;;;;4952068;28;114776;-79
2022/12/09 05:23:46;;;;;;;40.53;22.25;;;2.80;72.00;;;;;;4968614;28;115905;-80
2022/12/09 05:26:17;;;;;;;38.95;22.73;;;2.80;71.90;;;;;;4949782;28;115010;-78
2022/12/09 05:28:45;;;;;;;38.05;20.83;;;2.80;71.90;;;;;;4967335;28;114605;-78
2022/12/09 05:31:16;;;;;;;42.15;22.83;;;2.90;72.00;;;;;;4967790;28;114695;-79
2022/12/09 05:33:44;;;;;;;36.35;20.60;;;2.90;71.90;;;;;;4950415;28;115029;-79
2022/12/09 05:36:14;;;;;;;42.38;21.13;;;2.90;71.90;;;;;;4967239;28;115925;-79
2022/12/09 05:38:41;;;;;;;40.97;21.77;;;2.90;71.90;;;;;;4966166;28;114247;-79
2022/12/09 05:41:09;;;;;;;39.63;21.65;;;2.90;71.80;;;;;;4948166;28;114851;-79
2022/12/09 05:43:37;;;;;;;41.58;21.35;;;3.00;71.80;;;;;;4965421;28;115179;-79
2022/12/09 05:46:05;;;;;;;38.78;21.35;;;3.00;71.80;;;;;;4965761;28;114686;-79
2022/12/09 05:48:33;;;;;;;42.35;22.40;;;3.00;71.80;;;;;;4966775;28;114413;-80
2022/12/09 05:51:04;;;;;;;47.28;24.90;;;3.00;71.70;;;;;;4968456;28;114343;-79
2022/12/09 05:53:32;;;;;;;45.47;22.80;;;2.90;71.70;;;;;;4965559;28;116355;-79
2022/12/09 05:55:59;;;;;;;41.75;23.02;;;2.90;71.70;;;;;;4965987;28;114734;-79
2022/12/09 05:58:27;;;;;;;43.50;23.13;;;2.90;71.80;;;;;;4966359;28;114565;-79
2022/12/09 06:00:56;;;;;;;44.72;23.77;;;2.90;71.80;;;;;;4950625;28;114807;-79
2022/12/09 06:03:24;;;;;;;49.13;24.75;;;3.00;71.80;;;;;;4967677;28;115650;-78
2022/12/09 06:05:51;;;;;;;49.50;25.17;;;3.00;71.80;;;;;;4965597;28;114595;-79
2022/12/09 06:08:19;;;;;;;48.10;24.98;;;3.00;71.80;;;;;;4967067;28;114457;-79
2022/12/09 06:10:47;;;;;;;48.50;23.90;;;3.00;71.70;;;;;;4966675;28;114873;-79
2022/12/09 06:13:14;;;;;;;50.10;23.95;;;3.00;71.60;;;;;;4966572;28;114958;-78
2022/12/09 06:15:42;;;;;;;45.70;24.13;;;2.90;71.80;;;;;;4969996;28;114637;-79
2022/12/09 06:18:10;;;;;;;46.83;23.73;;;2.90;72.00;;;;;;4968002;28;114351;-78
2022/12/09 06:20:40;;;;;;;47.38;24.50;;;2.90;72.00;;;;;;4967067;28;114605;-80
2022/12/09 06:23:09;;;;;;;50.15;24.80;;;2.90;71.90;;;;;;4964585;28;117350;-79
2022/12/09 06:25:36;;;;;;;51.90;25.42;;;2.90;71.80;;;;;;4947036;28;114828;-79
2022/12/09 06:28:04;;;;;;;50.15;23.83;;;2.90;71.80;;;;;;4966948;28;114750;-79
2022/12/09 06:30:31;;;;;;;46.70;23.50;;;2.90;71.70;;;;;;4965935;28;115457;-79
2022/12/09 06:32:59;;;;;;;45.08;23.48;;;2.90;71.70;;;;;;4963723;28;116279;-79
2022/12/09 06:35:27;;;;;;;42.17;22.25;;;2.80;71.80;;;;;;4965555;28;114702;-78
2022/12/09 06:37:54;;;;;;;48.25;23.13;;;2.80;71.90;;;;;;4966130;28;114728;-79
2022/12/09 06:40:22;;;;;;;40.83;23.42;;;2.70;72.20;;;;;;4964462;28;114517;-79
2022/12/09 06:42:50;;;;;;;49.08;26.88;;;2.70;72.30;;;;;;4963845;28;115069;-78
2022/12/09 06:45:20;;;;;;;49.88;26.60;;;2.70;72.20;;;;;;4965406;28;114560;-79
2022/12/09 06:47:48;;;;;;;54.85;28.17;;;2.80;72.20;;;;;;4965980;28;114482;-78
2022/12/09 06:50:15;;;;;;;50.47;28.77;;;2.80;72.10;;;;;;4966644;28;114785;-78
2022/12/09 06:52:42;;;;;;;50.75;27.27;;;2.80;72.20;;;;;;4962971;28;116544;-78
2022/12/09 06:55:11;;;;;;;56.50;32.95;;;2.80;72.20;;;;;;4959599;28;115033;-78
2022/12/09 06:57:39;;;;;;;77.05;38.15;;;2.90;72.20;;;;;;4966099;28;114575;-79
2022/12/09 07:00:08;;;;;;;71.72;38.30;;;2.90;72.10;;;;;;4963378;28;114738;-79
2022/12/09 07:02:35;;;;;;;61.13;32.47;;;2.80;72.10;;;;;;4967751;28;116096;-80
2022/12/09 07:05:03;;;;;;;62.35;32.00;;;2.70;72.20;;;;;;4965141;28;114635;-80
2022/12/09 07:07:32;;;;;;;53.58;30.05;;;2.70;72.50;;;;;;4963557;28;117092;-80
2022/12/09 07:10:07;;;;;;;61.53;32.03;;;2.70;72.50;;;;;;4965914;28;114581;-81
2022/12/09 07:12:34;;;;;;;57.35;30.85;;;2.70;72.60;;;;;;4963956;28;118564;-80
2022/12/09 07:15:02;;;;;;;54.15;29.60;;;2.80;72.50;;;;;;4942768;28;114757;-79
2022/12/09 07:17:30;;;;;;;50.38;29.15;;;2.80;72.40;;;;;;4967049;28;114918;-80
2022/12/09 07:19:58;;;;;;;50.30;28.67;;;2.90;72.30;;;;;;4964954;28;114569;-79
2022/12/09 07:22:33;;;;;;;52.40;29.58;;;3.00;72.30;;;;;;4945499;28;115283;-80
2022/12/09 07:25:01;;;;;;;49.38;27.70;;;3.00;72.20;;;;;;4963331;28;114770;-80
2022/12/09 07:27:28;;;;;;;58.20;31.85;;;3.00;72.20;;;;;;4967463;28;114536;-79
2022/12/09 07:29:56;;;;;;;52.35;29.83;;;3.10;72.20;;;;;;4964858;28;114513;-80
2022/12/09 07:32:24;;;;;;;49.85;28.38;;;3.10;72.00;;;;;;4965019;28;115012;-79
2022/12/09 07:34:52;;;;;;;55.95;30.85;;;3.10;72.00;;;;;;4979138;28;116017;-80
2022/12/09 07:37:19;;;;;;;49.70;29.02;;;3.20;71.90;;;;;;4966074;28;114769;-79
2022/12/09 07:39:46;;;;;;;54.70;31.15;;;3.10;71.80;;;;;;4964039;28;114632;-80
2022/12/09 07:42:14;;;;;;;59.15;31.77;;;3.10;71.90;;;;;;4968973;28;115103;-80
2022/12/09 07:44:51;;;;;;;58.85;31.95;;;3.10;71.80;;;;;;4953628;28;114692;-81
2022/12/09 07:47:18;;;;;;;62.15;32.88;;;3.10;71.80;;;;;;4966468;28;114326;-80
2022/12/09 07:49:45;;;;;;;54.60;29.73;;;2.90;71.90;;;;;;4966687;28;114526;-81
2022/12/09 07:52:13;;;;;;;57.42;33.08;;;2.90;72.20;;;;;;4965432;28;115046;-80
2022/12/09 07:54:41;;;;;;;60.95;30.58;;;2.90;73.10;;;;;;4964141;28;114546;-80
2022/12/09 07:57:09;;;;;;;59.35;30.88;;;3.00;73.10;;;;;;4964149;28;114396;-80
2022/12/09 07:59:37;;;;;;;59.78;32.70;;;3.10;73.10;;;;;;4965972;28;116563;-81
2022/12/09 08:02:04;;;;;;;56.15;30.60;;;3.20;73.20;;;;;;4964957;28;115079;-81
2022/12/09 08:04:34;;;;;;;50.75;28.70;;;3.20;72.90;;;;;;4965240;28;114745;-81
2022/12/09 08:07:02;;;;;;;52.63;27.52;;;3.20;72.90;;;;;;4966171;28;114990;-80
2022/12/09 08:09:30;;;;;;;53.10;28.40;;;3.20;72.70;;;;;;4967319;28;114378;-79
2022/12/09 08:11:58;;;;;;;56.10;30.20;;;3.20;72.70;;;;;;4963764;28;115238;-82
2022/12/09 08:14:25;;;;;;;45.85;25.75;;;3.20;72.60;;;;;;4963710;28;117570;-78
2022/12/09 08:16:53;;;;;;;47.20;26.02;;;3.20;72.40;;;;;;4967166;28;114450;-79
2022/12/09 08:19:20;;;;;;;44.78;26.55;;;3.30;72.40;;;;;;4964953;28;114320;-80
2022/12/09 08:21:48;;;;;;;45.47;28.10;;;3.30;72.40;;;;;;4963315;28;115151;-78
2022/12/09 08:24:20;;;;;;;51.45;31.30;;;3.30;72.10;;;;;;4963350;28;115026;-80
2022/12/09 08:26:49;;;;;;;53.55;34.17;;;3.30;72.10;;;;;;4966720;28;114810;-80
2022/12/09 08:29:16;;;;;;;51.30;30.17;;;3.30;72.00;;;;;;4966161;28;114314;-81
2022/12/09 08:31:44;;;;;;;53.05;30.50;;;3.30;72.00;;;;;;4964009;28;115126;-82
2022/12/09 08:34:13;;;;;;;57.97;36.70;;;3.30;71.90;;;;;;4950850;28;115240;-81
2022/12/09 08:36:41;;;;;;;55.22;33.85;;;3.30;71.70;;;;;;4935433;28;114538;-81
2022/12/09 08:39:11;;;;;;;56.55;35.28;;;3.40;71.70;;;;;;4969010;28;115710;-80
2022/12/09 08:41:38;;;;;;;57.78;35.38;;;3.30;71.60;;;;;;4965965;28;114956;-80
2022/12/09 08:44:15;;;;;;;57.50;35.85;;;3.30;71.70;;;;;;4965565;28;114825;-81
2022/12/09 08:46:45;;;;;;;60.20;37.83;;;3.20;72.00;;;;;;4967641;28;117477;-81
2022/12/09 08:49:17;;;;;;;55.97;33.40;;;3.30;72.00;;;;;;4966148;28;114750;-80
2022/12/09 08:51:47;;;;;;;54.03;32.17;;;3.40;71.90;;;;;;4934537;28;115117;-79
2022/12/09 08:54:14;;;;;;;49.97;29.05;;;3.40;71.50;;;;;;4947285;28;115252;-80
2022/12/09 08:56:46;;;;;;;49.58;29.88;;;3.20;71.50;;;;;;4963305;28;114485;-79
2022/12/09 08:59:14;;;;;;;48.13;27.63;;;3.20;71.60;;;;;;4967435;28;114475;-80
2022/12/09 09:01:42;;;;;;;57.30;31.63;;;3.20;71.60;;;;;;4949731;28;115105;-80
2022/12/09 09:04:13;;;;;;;48.50;30.15;;;3.10;71.70;;;;;;4966719;28;115132;-80
2022/12/09 09:06:42;;;;;;;51.00;31.23;;;3.10;72.00;;;;;;4966061;28;114719;-81
2022/12/09 09:09:11;;;;;;;55.20;32.58;;;3.10;72.00;;;;;;4967072;28;114638;-81
2022/12/09 09:11:39;;;;;;;58.22;36.00;;;3.20;71.90;;;;;;4978105;28;115735;-80
2022/12/09 09:14:08;;;;;;;64.90;36.50;;;3.10;71.90;;;;;;4965058;28;114803;-80
2022/12/09 09:16:38;;;;;;;62.03;35.83;;;3.10;71.90;;;;;;4948550;28;114541;-79
2022/12/09 09:19:06;;;;;;;54.13;32.65;;;3.10;72.00;;;;;;4951535;28;114736;-79
2022/12/09 09:21:35;;;;;;;57.88;33.42;;;3.20;71.90;;;;;;4964162;28;115199;-79
2022/12/09 09:24:09;;;;;;;58.35;35.10;;;3.20;71.90;;;;;;4949086;28;114752;-79
2022/12/09 09:26:40;;;;;;;;;;;3.20;71.90;;;;;;4949845;28;114574;-79
2022/12/09 09:29:11;;;;;;;51.10;30.67;;;3.20;71.60;;;;;;4950928;28;114645;-79
2022/12/09 09:31:38;;;;;;;51.92;30.48;;;3.10;71.80;;;;;;4964891;28;115058;-79
2022/12/09 09:34:06;;;;;;;52.03;31.25;;;3.10;71.60;;;;;;4962129;28;116060;-79
2022/12/09 09:36:34;;;;;;;53.28;29.05;;;3.10;71.50;;;;;;4964919;28;114845;-78
2022/12/09 09:39:02;;;;;;;47.47;27.92;;;3.00;71.40;;;;;;4967587;28;114506;-79
2022/12/09 09:41:57;;;;;;;55.75;30.88;;;2.90;71.50;;;;;;4964289;28;116463;-80
2022/12/09 09:44:43;;;;;;;63.83;34.42;;;3.00;71.70;;;;;;4962857;28;115763;-79
2022/12/09 09:47:37;;;;;;;57.92;33.58;;;3.00;71.80;;;;;;4965898;28;114607;-78
2022/12/09 09:50:29;;;;;;;63.92;35.33;;;3.00;71.50;;;;;;4965703;28;114596;-79
2022/12/09 09:52:57;;;;;;;67.30;36.38;;;3.00;71.50;;;;;;4958928;28;115091;-79
2022/12/09 09:55:38;;;;;;;56.95;32.25;;;2.80;71.50;;;;;;4963887;28;115739;-79
2022/12/09 09:58:45;;;;;;;61.20;34.05;;;2.90;71.80;;;;;;4961398;28;116467;-80
2022/12/09 10:01:17;;;;;;;59.63;32.65;;;2.90;71.80;;;;;;4951315;28;114567;-80
2022/12/09 10:04:06;;;;;;;55.75;30.50;;;2.90;71.90;;;;;;4948425;28;117739;-80
2022/12/09 10:07:16;;;;;;;55.70;32.65;;;3.00;71.80;;;;;;4964829;28;114581;-80
2022/12/09 10:10:27;;;;;;;39.40;23.80;;;3.00;71.80;;;;;;4953936;28;114576;-81
2022/12/09 10:13:18;;;;;;;44.85;26.00;;;2.90;71.60;;;;;;4966103;28;114791;-80
2022/12/09 10:16:01;;;;;;;47.63;24.23;;;2.90;71.60;;;;;;4959966;28;116498;-80
2022/12/09 10:18:37;;;;;;;44.47;25.27;;;2.90;71.70;;;;;;4960581;28;114548;-79
2022/12/09 10:21:17;;;;;;;41.35;23.98;;;2.90;71.60;;;;;;4949294;28;114636;-79
2022/12/09 10:23:45;;;;;;;36.67;21.60;;;2.80;71.60;;;;;;4964197;28;114497;-80
2022/12/09 10:26:21;;;;;;;39.67;24.08;;;2.80;71.60;;;;;;4948502;28;115042;-80
2022/12/09 10:28:58;;;;;;;35.70;21.70;;;2.80;71.60;;;;;;4964488;28;114613;-80
2022/12/09 10:31:25;;;;;;;33.15;20.50;;;2.90;71.60;;;;;;4932736;28;114428;-81
2022/12/09 10:33:53;;;;;;;35.60;21.98;;;2.90;71.60;;;;;;4949431;28;114614;-80
2022/12/09 10:36:27;;;;;;;35.10;21.60;;;2.90;71.50;;;;;;4963262;28;117099;-80
2022/12/09 10:39:10;;;;;;;34.95;21.42;;;3.00;71.50;;;;;;4953160;28;115900;-80
2022/12/09 10:44:37;;;;;;;34.05;22.13;;;3.00;71.20;;;;;;4966265;28;114722;-80
2022/12/09 10:47:23;;;;;;;36.00;21.10;;;3.00;71.30;;;;;;4964685;28;115096;-80
2022/12/09 10:49:52;;;;;;;36.90;21.90;;;3.00;71.10;;;;;;4934469;28;119004;-79
2022/12/09 10:52:27;;;;;;;37.03;21.08;;;2.90;71.10;;;;;;4950004;28;114472;-78
2022/12/09 10:54:55;;;;;;;40.58;25.27;;;3.00;71.20;;;;;;4966472;28;114784;-80
2022/12/09 10:57:25;;;;;;;40.60;24.95;;;2.90;71.10;;;;;;4965300;28;115031;-80
2022/12/09 11:00:18;;;;;;;42.53;25.90;;;2.90;71.20;;;;;;4966199;28;115162;-80
2022/12/09 11:02:52;;;;;;;46.58;28.17;;;3.00;71.30;;;;;;4963584;28;114418;-80
2022/12/09 11:05:26;;;;;;;49.60;27.93;;;2.90;71.30;;;;;;4966162;28;114636;-80
2022/12/09 11:07:55;;;;;;;61.65;32.40;;;2.80;71.40;;;;;;4948117;28;115802;-80
2022/12/09 11:10:25;;;;;;;49.42;29.15;;;2.80;71.30;;;;;;4964692;28;115954;-80
2022/12/09 11:13:00;;;;;;;55.88;31.17;;;2.70;71.40;;;;;;4933315;28;114915;-80
2022/12/09 11:15:38;;;;;;;46.72;27.75;;;2.70;71.50;;;;;;4965364;28;114448;-79
2022/12/09 11:18:22;;;;;;;50.15;29.60;;;2.80;71.50;;;;;;4963912;28;115681;-80
2022/12/09 11:21:00;;;;;;;48.25;29.27;;;2.70;71.40;;;;;;4946651;28;114800;-79
2022/12/09 11:23:38;;;;;;;48.80;28.27;;;2.80;71.40;;;;;;4959349;28;114533;-80
2022/12/09 11:26:22;;;;;;;47.05;26.45;;;2.70;71.30;;;;;;4941940;28;114659;-79
2022/12/09 11:29:17;;;;;;;45.90;26.35;;;2.70;71.30;;;;;;4956498;28;115470;-80
2022/12/09 11:31:44;;;;;;;52.80;29.30;;;2.70;71.40;;;;;;4958278;28;114796;-80
2022/12/09 11:34:21;;;;;;;49.05;28.80;;;2.70;71.50;;;;;;4945243;28;114583;-80
2022/12/09 11:36:55;;;;;;;50.45;28.85;;;2.70;71.40;;;;;;4959274;28;117190;-80
2022/12/09 11:39:32;;;;;;;;;;;2.70;71.40;;;;;;4945865;28;115015;-80
2022/12/09 11:42:21;;;;;;;48.00;28.88;;;2.70;71.40;;;;;;4944316;28;117385;-81
2022/12/09 11:45:05;;;;;;;46.33;26.15;;;2.70;71.50;;;;;;4945158;28;114561;-79
2022/12/09 11:47:39;;;;;;;48.78;27.48;;;2.60;71.40;;;;;;4930952;28;114702;-80
2022/12/09 11:50:31;;;;;;;44.95;24.38;;;2.70;71.40;;;;;;4945223;28;117900;-78
2022/12/09 11:53:12;;;;;;;48.15;28.98;;;2.70;71.40;;;;;;4958582;28;114781;-79
2022/12/09 11:56:07;;;;;;;56.63;28.92;;;2.70;71.40;;;;;;4942627;28;114481;-79
2022/12/09 11:58:38;;;;;;;46.97;26.48;;;2.70;71.30;;;;;;4960270;28;116897;-79
2022/12/09 12:01:16;;;;;;;52.97;30.13;;;2.70;71.30;;;;;;4963406;28;115249;-79
2022/12/09 12:03:54;;;;;;;51.97;30.00;;;2.70;71.30;;;;;;4947823;28;114751;-78
2022/12/09 12:06:28;;;;;;;53.22;29.67;;;2.70;71.30;;;;;;4965015;28;114422;-79
2022/12/09 12:09:11;;;;;;;52.33;30.08;;;2.70;71.30;;;;;;4967800;28;114855;-78
2022/12/09 12:11:53;;;;;;;52.95;31.40;;;2.70;71.20;;;;;;4966791;28;115085;-79
2022/12/09 12:14:24;;;;;;;52.35;31.98;;;2.70;71.20;;;;;;4966844;28;115870;-80
2022/12/09 12:17:04;;;;;;;60.22;32.97;;;2.70;71.20;;;;;;4935657;28;114387;-79
2022/12/09 12:19:34;;;;;;;62.17;34.75;;;2.70;71.10;;;;;;4936313;28;114598;-79
2022/12/09 12:22:40;;;;;;;67.18;35.13;;;2.70;71.20;;;;;;4934329;28;117955;-79
2022/12/09 12:25:46;;;;;;;57.00;31.55;;;2.70;71.20;;;;;;4966157;28;114770;-79
2022/12/09 12:28:50;;;;;;;68.47;33.65;;;2.70;71.20;;;;;;4951444;28;114762;-78
2022/12/09 12:31:44;;;;;;;60.72;34.33;;;2.70;71.20;;;;;;4965033;28;114555;-79
2022/12/09 12:34:18;;;;;;;65.15;36.05;;;2.70;71.30;;;;;;4963678;28;115520;-79
2022/12/09 12:37:03;;;;;;;71.03;37.05;;;2.70;71.30;;;;;;4948688;28;114862;-79
2022/12/09 12:39:59;;;;;;;63.03;35.83;;;2.70;71.20;;;;;;4964627;28;114863;-79
2022/12/09 12:46:15;;;;;;;64.68;35.65;;;2.80;71.20;;;;;;4961524;28;114545;-79
2022/12/09 12:46:17;;;;;;;64.47;34.28;;;2.70;71.20;;;;;;4964167;28;116298;-79
2022/12/09 12:49:19;;;;;;;59.88;35.13;;;2.90;71.20;;;;;;4952926;28;115016;-79
2022/12/09 12:52:22;;;;;;;66.07;36.15;;;2.90;71.20;;;;;;4965115;28;114476;-79
2022/12/09 12:55:29;;;;;;;69.85;37.92;;;2.90;71.10;;;;;;4967337;28;114537;-79
2022/12/09 12:58:26;;;;;;;71.25;38.25;;;2.90;71.00;;;;;;4967976;28;115109;-79
2022/12/09 13:01:32;;;;;;;67.50;38.33;;;2.90;70.90;;;;;;4948988;28;114933;-79
2022/12/09 13:04:36;;;;;;;72.68;40.30;;;2.90;70.80;;;;;;4968537;28;114498;-79